logo
Search for airport 
image banner adimage banner adimage banner ad
image banner ad

ED1786 - Suhl Srh Zentralklinikum

Located in , Germany

ICAO - , IATA -

Data provided by Airmate  

General information

Coordinates: N50°36'11" E10°42'37"
Elevation is 1772 feet MSL.
 
View others Airports in Thuringia

Operational data

Special qualification required
Current time UTC:
Current local time:
Weather at : EDDE - Erfurt-Weimar ( 45 km )
METAR: EDDE 231050Z AUTO 24013KT 200V270 9999 FEW028 15/08 Q1015 NOSIG
TAF: TAF EDDE 230500Z 2306/2406 23009KT 9999 SCT025 BECMG 2306/2309 25014KT TEMPO 2308/2315 25015G25KT BECMG 2315/2318 24007KT
View NOTAMs / SUP AIP / TFR affecting this airport [VIEW]
Communications frequencies: [VIEW]

Runways:

Airport contact information

Address: Germany

Satellite view of ED1786